Time;durP1;ratioP1;P1;durP2;ratioP2;P2;SDS_P1;SDS_P2;PMS_P1;PMS_P2;Temp;Humidity;BMP_temperature;BMP_pressure;BME280_temperature;BME280_humidity;BME280_pressure;Samples;Min_cycle;Max_cycle;Signal;HPM_P1;HPM_P2
2021/12/09 00:04:06;;;;;;;23.37;14.17;;;5.10;96.60;;;;;;20913294;28;20261;-73
2021/12/09 00:14:10;;;;;;;25.23;14.83;;;5.00;96.70;;;;;;20912913;28;20703;-73
2021/12/09 00:24:12;;;;;;;24.07;14.97;;;4.80;96.60;;;;;;20913282;28;20660;-73
2021/12/09 00:34:14;;;;;;;22.93;14.43;;;4.80;97.00;;;;;;20913215;28;20239;-73
2021/12/09 00:44:16;;;;;;;22.47;14.03;;;4.80;96.90;;;;;;20913557;28;20651;-73
2021/12/09 00:54:18;;;;;;;22.17;13.93;;;4.80;97.10;;;;;;20912580;28;20244;-73
2021/12/09 01:04:20;;;;;;;19.77;12.90;;;5.00;97.20;;;;;;20912321;28;20630;-72
2021/12/09 01:14:22;;;;;;;19.67;13.43;;;5.00;97.50;;;;;;20912134;28;20231;-73
2021/12/09 01:24:23;;;;;;;22.17;13.87;;;4.90;97.00;;;;;;20910663;28;20200;-76
2021/12/09 01:34:25;;;;;;;24.43;14.77;;;4.90;97.30;;;;;;20910962;28;20232;-75
2021/12/09 01:44:27;;;;;;;25.83;15.10;;;4.90;97.60;;;;;;20911165;28;20205;-75
2021/12/09 01:54:29;;;;;;;24.47;14.20;;;4.90;97.40;;;;;;20925999;28;20258;-75
2021/12/09 02:04:32;;;;;;;23.67;14.77;;;5.00;97.70;;;;;;20925328;28;20200;-74
2021/12/09 02:14:34;;;;;;;26.53;14.33;;;4.90;97.50;;;;;;20924888;28;20692;-74
2021/12/09 02:24:37;;;;;;;22.50;14.80;;;5.10;97.50;;;;;;20923752;28;20219;-75
2021/12/09 02:34:38;;;;;;;25.63;14.87;;;5.20;97.80;;;;;;20922789;28;20698;-72
2021/12/09 02:44:40;;;;;;;21.83;13.87;;;5.10;97.60;;;;;;20922356;28;20243;-74
2021/12/09 02:54:42;;;;;;;28.10;14.97;;;5.00;97.50;;;;;;20921215;28;20285;-74
2021/12/09 03:04:48;;;;;;;23.43;14.17;;;5.00;98.00;;;;;;20920033;28;20204;-74
2021/12/09 03:14:50;;;;;;;25.50;14.97;;;5.20;98.10;;;;;;20920139;28;20233;-74
2021/12/09 03:24:52;;;;;;;24.90;14.00;;;5.30;97.90;;;;;;20919102;28;20717;-75
2021/12/09 03:34:53;;;;;;;26.20;14.43;;;5.40;98.30;;;;;;20918122;28;20280;-75
2021/12/09 03:44:56;;;;;;;24.37;13.80;;;5.40;97.90;;;;;;20917621;28;20232;-75
2021/12/09 03:54:59;;;;;;;23.40;13.73;;;5.40;97.90;;;;;;20916599;28;20237;-74
2021/12/09 04:05:00;;;;;;;21.23;13.90;;;5.20;97.70;;;;;;20915797;28;20266;-76
2021/12/09 04:15:04;;;;;;;25.07;13.97;;;5.20;97.80;;;;;;20914815;28;20232;-73
2021/12/09 04:25:07;;;;;;;25.93;14.00;;;5.20;98.30;;;;;;20914575;28;20212;-76
2021/12/09 04:35:10;;;;;;;22.23;13.50;;;5.50;98.10;;;;;;20913921;28;20606;-76
2021/12/09 04:45:12;;;;;;;24.67;13.27;;;5.50;98.30;;;;;;20913585;28;20282;-75
2021/12/09 04:55:13;;;;;;;23.17;13.87;;;5.60;98.30;;;;;;20895119;28;20240;-74
2021/12/09 05:05:15;;;;;;;24.43;14.07;;;5.50;98.10;;;;;;20912396;28;20247;-75
2021/12/09 05:15:17;;;;;;;22.27;13.20;;;5.60;98.20;;;;;;20912022;28;20233;-76
2021/12/09 05:25:19;;;;;;;22.33;13.33;;;5.60;98.30;;;;;;20923456;28;20265;-76
2021/12/09 05:35:20;;;;;;;25.90;12.97;;;5.60;98.10;;;;;;20927457;28;20231;-74
2021/12/09 05:45:22;;;;;;;26.20;13.37;;;5.70;98.00;;;;;;20927068;28;20237;-74
2021/12/09 05:55:24;;;;;;;25.80;13.70;;;5.60;98.00;;;;;;20926066;28;20228;-74
2021/12/09 06:05:25;;;;;;;27.63;17.30;;;5.50;98.00;;;;;;20923375;28;20836;-73
2021/12/09 06:15:27;;;;;;;33.63;14.50;;;6.10;98.30;;;;;;20924996;28;20243;-74
2021/12/09 06:25:30;;;;;;;34.37;16.00;;;5.60;98.10;;;;;;20923413;28;20208;-73
2021/12/09 06:35:33;;;;;;;33.27;14.90;;;5.50;98.00;;;;;;20903295;28;20240;-74
2021/12/09 06:45:35;;;;;;;27.57;14.17;;;5.50;98.30;;;;;;20922119;28;20237;-74
2021/12/09 06:55:38;;;;;;;30.93;14.60;;;5.60;98.10;;;;;;20918461;28;20232;-74
2021/12/09 07:05:39;;;;;;;28.43;14.37;;;5.60;98.30;;;;;;20919348;28;20215;-73
2021/12/09 07:15:41;;;;;;;27.33;17.97;;;5.70;98.10;;;;;;20899587;28;20463;-72
2021/12/09 07:25:43;;;;;;;25.40;14.73;;;5.80;98.10;;;;;;20917935;28;20208;-73
2021/12/09 07:35:45;;;;;;;39.27;14.73;;;5.80;98.30;;;;;;20916810;28;20304;-73
2021/12/09 07:45:48;;;;;;;28.70;13.40;;;5.80;98.40;;;;;;20915812;28;20688;-73
2021/12/09 07:55:52;;;;;;;19.83;10.47;;;5.80;97.90;;;;;;20915093;28;20724;-73
2021/12/09 08:05:57;;;;;;;20.20;8.90;;;5.70;97.60;;;;;;20914720;28;20581;-72
2021/12/09 08:16:00;;;;;;;15.67;9.23;;;5.70;97.70;;;;;;20913668;28;20722;-73
2021/12/09 08:26:01;;;;;;;18.80;9.10;;;5.70;97.10;;;;;;20895021;28;20211;-73
2021/12/09 08:36:03;;;;;;;23.17;10.23;;;5.70;97.40;;;;;;20894351;28;20289;-72
2021/12/09 08:46:05;;;;;;;19.70;9.63;;;5.70;97.40;;;;;;20910743;28;20240;-72
2021/12/09 08:56:07;;;;;;;14.63;7.40;;;5.80;97.10;;;;;;20909889;28;20235;-72
2021/12/09 09:06:08;;;;;;;16.03;7.93;;;6.00;96.90;;;;;;20910155;28;20268;-73
2021/12/09 09:16:10;;;;;;;15.30;7.47;;;6.10;96.90;;;;;;20910196;28;20719;-73
2021/12/09 09:26:12;;;;;;;19.57;8.00;;;6.30;96.90;;;;;;20909279;28;20545;-73
2021/12/09 09:36:14;;;;;;;16.33;7.77;;;6.40;96.60;;;;;;20909063;28;20290;-73
2021/12/09 09:46:19;;;;;;;15.60;6.90;;;6.50;96.70;;;;;;20891375;28;20227;-73
2021/12/09 09:56:23;;;;;;;15.37;6.23;;;6.60;96.50;;;;;;20908524;28;20254;-73
2021/12/09 10:06:25;;;;;;;9.80;5.63;;;6.90;96.50;;;;;;20909875;28;20613;-73
2021/12/09 10:16:27;;;;;;;9.13;5.40;;;6.90;96.10;;;;;;20923529;28;20314;-72
2021/12/09 10:26:28;;;;;;;8.17;4.90;;;6.90;95.60;;;;;;20922533;28;20587;-75
2021/12/09 10:36:50;;;;;;;13.00;5.23;;;6.60;95.00;;;;;;20921451;28;20241;-72
2021/12/09 10:46:55;;;;;;;8.37;5.53;;;6.70;95.20;;;;;;20921188;28;20269;-72
2021/12/09 10:57:18;;;;;;;11.43;5.73;;;6.80;94.60;;;;;;20919679;28;20724;-73
2021/12/09 11:07:30;;;;;;;11.43;5.63;;;6.70;94.00;;;;;;20919253;28;20267;-70
2021/12/09 11:17:37;;;;;;;12.70;6.20;;;6.70;94.20;;;;;;20918210;28;20290;-71
2021/12/09 11:27:39;;;;;;;10.63;6.00;;;6.60;94.30;;;;;;20917571;28;20213;-74
2021/12/09 11:37:49;;;;;;;13.90;7.13;;;6.60;94.30;;;;;;20916183;28;20331;-72
2021/12/09 11:47:53;;;;;;;13.60;6.83;;;6.60;94.50;;;;;;20914983;28;20709;-70
2021/12/09 11:58:07;;;;;;;10.60;6.53;;;6.60;94.80;;;;;;20952975;28;20634;-71
2021/12/09 12:18:58;;;;;;;12.87;8.03;;;6.50;94.50;;;;;;20995640;28;20238;-71
2021/12/09 12:29:27;;;;;;;18.13;8.30;;;6.50;94.70;;;;;;20931671;28;20204;-70
2021/12/09 12:39:31;;;;;;;13.27;7.73;;;6.60;94.30;;;;;;20942934;28;20217;-74
2021/12/09 12:49:34;;;;;;;21.43;9.20;;;6.70;94.60;;;;;;20993775;28;20239;-67
2021/12/09 12:59:39;;;;;;;19.57;8.70;;;6.50;94.50;;;;;;20994067;28;20209;-68
2021/12/09 13:09:51;;;;;;;18.43;8.43;;;6.50;94.70;;;;;;20993277;28;20276;-67
2021/12/09 13:20:05;;;;;;;13.57;7.60;;;6.20;94.60;;;;;;20975539;28;20689;-69
2021/12/09 13:51:14;;;;;;;18.20;7.80;;;6.20;94.50;;;;;;21007025;28;20300;-72
2021/12/09 14:01:16;;;;;;;18.20;7.10;;;6.30;94.40;;;;;;21006758;28;20258;-74
2021/12/09 14:11:26;;;;;;;17.23;7.23;;;6.30;94.40;;;;;;21006076;28;20238;-70
2021/12/09 14:21:29;;;;;;;14.37;6.83;;;6.30;94.50;;;;;;21005868;28;20655;-74
2021/12/09 14:31:49;;;;;;;21.73;8.20;;;6.20;93.90;;;;;;21005119;28;20228;-73
2021/12/09 14:42:18;;;;;;;17.20;7.23;;;6.20;93.10;;;;;;21004756;28;20207;-69
2021/12/09 14:52:36;;;;;;;13.60;7.60;;;6.20;93.40;;;;;;20997528;28;20959;-68
2021/12/09 15:02:49;;;;;;;14.50;7.30;;;6.50;92.70;;;;;;21003103;28;20230;-72
2021/12/09 15:12:51;;;;;;;13.73;6.67;;;6.40;92.50;;;;;;21002279;28;20231;-72
2021/12/09 15:23:00;;;;;;;15.87;7.00;;;6.40;92.60;;;;;;21001243;28;20610;-74
2021/12/09 15:33:02;;;;;;;24.33;11.40;;;6.40;92.50;;;;;;21000834;28;20235;-75
2021/12/09 15:43:13;;;;;;;12.60;5.87;;;6.40;92.50;;;;;;20998965;28;20567;-75
2021/12/09 15:53:15;;;;;;;16.57;6.30;;;6.40;92.60;;;;;;20997893;28;20244;-75
2021/12/09 16:03:18;;;;;;;15.07;6.60;;;6.40;92.60;;;;;;20997589;28;20612;-76
2021/12/09 16:13:21;;;;;;;19.90;7.17;;;6.40;92.50;;;;;;20997870;28;20237;-74
2021/12/09 16:23:24;;;;;;;16.93;7.17;;;6.40;92.20;;;;;;20996835;28;20211;-72
2021/12/09 16:33:27;;;;;;;22.37;9.60;;;6.30;92.30;;;;;;20996069;28;20297;-71
2021/12/09 16:43:30;;;;;;;16.60;8.13;;;6.30;92.40;;;;;;20996264;28;20207;-72
2021/12/09 16:53:45;;;;;;;16.10;8.00;;;6.50;92.60;;;;;;20995110;28;20251;-71
2021/12/09 17:03:47;;;;;;;14.67;7.03;;;6.40;92.60;;;;;;20994907;28;20262;-71
2021/12/09 17:13:49;;;;;;;16.90;7.70;;;6.40;93.00;;;;;;20994826;28;20698;-73
2021/12/09 17:23:51;;;;;;;13.57;6.80;;;6.40;92.90;;;;;;21010661;28;20610;-71
2021/12/09 17:33:53;;;;;;;16.90;6.27;;;6.40;93.20;;;;;;21010515;28;20603;-67
2021/12/09 17:53:03;;;;;;;8.57;5.30;;;6.50;93.00;;;;;;21236946;27;20505;-67
2021/12/09 18:03:05;;;;;;;14.03;5.70;;;6.40;93.20;;;;;;21151268;28;20666;-70
2021/12/09 18:13:09;;;;;;;10.73;4.80;;;6.50;93.30;;;;;;21123882;28;20671;-71
2021/12/09 18:23:10;;;;;;;20.30;5.50;;;6.50;93.20;;;;;;21087699;28;20612;-69
2021/12/09 18:33:12;;;;;;;16.50;5.27;;;6.30;93.00;;;;;;21114612;28;20211;-69
2021/12/09 18:43:16;;;;;;;15.73;5.57;;;6.30;93.30;;;;;;21146643;28;20230;-67
2021/12/09 18:53:17;;;;;;;11.10;4.97;;;6.30;93.00;;;;;;21146280;28;20734;-73
2021/12/09 19:03:21;;;;;;;12.53;5.50;;;6.20;93.40;;;;;;21095831;28;20230;-81
2021/12/09 19:13:23;;;;;;;13.83;5.77;;;6.20;93.50;;;;;;21007006;28;20203;-71
2021/12/09 19:23:27;;;;;;;11.00;5.43;;;6.20;93.40;;;;;;21004700;28;20224;-72
2021/12/09 19:33:30;;;;;;;13.70;5.77;;;6.10;93.60;;;;;;21004460;28;20203;-77
2021/12/09 19:43:33;;;;;;;12.77;5.13;;;6.10;93.90;;;;;;21003582;28;20286;-72
2021/12/09 19:53:37;;;;;;;11.03;5.30;;;6.00;93.80;;;;;;21002861;28;20203;-71
2021/12/09 20:03:39;;;;;;;10.47;5.10;;;5.90;93.90;;;;;;21003502;28;20277;-78
2021/12/09 20:13:42;;;;;;;17.07;7.53;;;5.90;94.30;;;;;;21083943;28;20658;-73
2021/12/09 20:23:43;;;;;;;9.27;4.97;;;5.90;94.20;;;;;;21084127;28;20743;-74
2021/12/09 20:33:46;;;;;;;6.77;4.40;;;6.00;94.60;;;;;;21083426;28;20207;-68
2021/12/09 20:43:47;;;;;;;10.17;5.27;;;5.90;94.50;;;;;;21082614;28;20595;-72
2021/12/09 20:53:50;;;;;;;5.03;4.33;;;5.80;94.40;;;;;;21081715;28;20207;-67
2021/12/09 21:03:52;;;;;;;7.37;5.30;;;5.90;94.50;;;;;;21073377;28;20458;-72
2021/12/09 21:13:57;;;;;;;7.93;4.80;;;6.20;94.90;;;;;;20997026;28;20226;-71
2021/12/09 21:23:59;;;;;;;5.50;4.43;;;6.00;94.70;;;;;;20998118;28;20281;-72
2021/12/09 21:34:04;;;;;;;7.73;5.13;;;5.90;94.60;;;;;;20996859;28;20665;-69
2021/12/09 21:44:07;;;;;;;6.13;4.83;;;6.00;95.00;;;;;;20996273;28;20645;-69
2021/12/09 21:54:09;;;;;;;7.57;5.40;;;6.00;94.40;;;;;;20994800;28;20203;-71
2021/12/09 22:04:12;;;;;;;7.17;5.07;;;6.00;94.60;;;;;;21000736;28;20295;-66
2021/12/09 22:14:14;;;;;;;6.67;4.93;;;6.00;94.80;;;;;;21078312;28;20665;-74
2021/12/09 22:24:16;;;;;;;6.67;5.10;;;6.00;94.80;;;;;;21077638;28;20643;-69
2021/12/09 22:34:18;;;;;;;7.03;4.70;;;6.00;94.60;;;;;;21084198;28;20256;-73
2021/12/09 22:44:20;;;;;;;5.80;4.80;;;6.00;94.90;;;;;;21092230;28;20284;-68
2021/12/09 22:54:23;;;;;;;7.93;4.60;;;6.10;94.80;;;;;;21091344;28;20233;-67
2021/12/09 23:04:25;;;;;;;5.40;4.03;;;6.10;94.50;;;;;;21081948;28;20281;-70
2021/12/09 23:14:45;;;;;;;5.53;3.77;;;6.10;94.70;;;;;;21006137;28;20664;-67
2021/12/09 23:24:47;;;;;;;4.37;3.20;;;6.20;94.70;;;;;;21008103;28;20675;-67
2021/12/09 23:34:48;;;;;;;4.33;2.70;;;6.10;94.40;;;;;;21079635;28;20261;-74
2021/12/09 23:44:50;;;;;;;3.70;2.40;;;6.20;94.30;;;;;;21084310;28;20273;-77
2021/12/09 23:54:52;;;;;;;3.27;2.43;;;6.20;94.20;;;;;;21086646;28;20212;-66
